Create Custom Reports and Graphics: Custom Report

Kelseyville

Current Conditions

10/24/20 9:45 PM (-07:00)
Updated Every 15 Minutes
Temp 49.6 °F   0.0
RH 85 %   14
Dew Pt 45.2 °F   4.9
Wet Bulb 47.9 °F   2.5
Wind Dir S | 170 °
Wind Spd 1.1 mph   0.6
Wind Gust 2.2 mph
Solar Rad 0 W/m2   0
Leaf Wet 0.0 mins
BatVolt 12.8 V   0.0

Today & Yesterday

Kelseyville

10/24/20 9:45 PM (-07:00)
Updated Every 15 Minutes
Daily Max Temp 75.0 °F   2.7
Time of Max Temp 1435
Daily Min Temp 36.2 °F   1.6
Time of Min Temp 0724
Daily Max Wind 13.6 mph   2.2
Time of Max Wind 1549
Max Wind Dir WSW | 249 °
Daily Rain 0.00 In
Daily ETo 0.100 in   0.001
Daily Leaf Wet Hrs 0.0 hrs
Yesterday's Max Temp 77.7 °F
Yesterday’s Min Temp 34.6 °F
Yesterday's Max Wind 11.4 mph
Yesterday's Rainfall 0.00 In
Yesterday's ETo 0.10 In
Leaf Wet Hrs Yest 0.0 Hours

Last 48 Hours

Kelseyville

Hourly Data | America/Los_Angeles
as of 10/24/20 9:46 PM PDT
Date & Time Temp (°F) RH (%) Dew Pt (°F) Wet Bulb (°F) Wind Dir (°) Wind Spd (mph) Wind Gust (mph) Wind Gst Dir (°) Solar Rad (W/m2) Leaf Wet (mins) Latest Rain (In) Daily Rain (In) Daily Min Temp (°F) Daily Max Temp (°F) Daily ETo (in) Daily Leaf Wet Hrs (hrs)
10/24/20 - 2100 53.0 79 46.6 50.2 S | 183 2.2 4.6 S | 188 0 0.0 0.00 0.00 36.2 75.0 0.100 0.0
10/24/20 - 2000 55.6 72 46.8 51.4 S | 186 2.0 4.6 S | 191 0 0.0 0.00 0.00 36.2 75.0 0.100 0.0
10/24/20 - 1900 61.0 62 47.6 54.0 S | 191 2.7 7.0 SSW | 211 5 0.0 0.00 0.00 36.2 75.0 0.100 0.0
10/24/20 - 1800 66.5 51 47.7 55.9 SSW | 209 5.6 11.8 S | 186 105 0.0 0.00 0.00 36.2 75.0 0.100 0.0
10/24/20 - 1700 70.8 38 44.2 55.5 SW | 227 5.5 12.7 SSW | 210 266 0.0 0.00 0.00 36.2 75.0 0.096 0.0
10/24/20 - 1600 73.5 30 40.3 54.6 SW | 235 4.9 13.6 WSW | 249 418 0.0 0.00 0.00 36.2 75.0 0.088 0.0
10/24/20 - 1500 73.7 27 37.5 53.5 SW | 220 5.0 12.1 SSW | 213 534 0.0 0.00 0.00 36.2 75.0 0.076 0.0
10/24/20 - 1400 72.9 27 37.2 53.2 WSW | 240 3.3 9.2 SW | 216 597 0.0 0.00 0.00 36.2 74.8 0.060 0.0
10/24/20 - 1300 68.7 36 40.6 53.2 NNE | 23 3.0 7.7 N | 11 600 0.0 0.00 0.00 36.2 71.1 0.044 0.0
10/24/20 - 1200 65.3 43 42.3 52.8 NNE | 26 4.7 9.2 N | 9 544 0.0 0.00 0.00 36.2 67.0 0.029 0.0
10/24/20 - 1100 62.3 48 42.2 51.7 W | 267 1.3 4.4 NE | 34 438 0.0 0.00 0.00 36.2 65.2 0.015 0.0
10/24/20 - 1000 55.2 61 41.8 48.6 SSW | 200 0.9 4.2 E | 86 289 0.0 0.00 0.00 36.2 59.9 0.006 0.0
10/24/20 - 0900 42.5 85 38.1 40.7 SSW | 203 0.9 3.5 S | 190 130 0.0 0.00 0.00 36.2 49.4 0.001 0.0
10/24/20 - 0800 37.2 93 35.3 36.5 S | 184 0.6 2.0 SSE | 166 6 0.0 0.00 0.00 36.2 41.1 0.000 0.0
10/24/20 - 0700 37.7 91 35.2 36.8 S | 190 0.6 2.2 SSW | 200 0 0.0 0.00 0.00 37.2 41.1 0.000 0.0
10/24/20 - 0600 39.1 91 36.7 38.1 SSW | 194 0.8 2.6 S | 171 0 0.0 0.00 0.00 38.5 41.1 0.000 0.0
10/24/20 - 0500 39.2 89 36.3 38.1 SSE | 158 0.8 2.8 S | 186 0 0.0 0.00 0.00 38.5 41.1 0.000 0.0
10/24/20 - 0400 39.8 88 36.6 38.5 WSW | 238 0.8 3.1 SSW | 200 0 0.0 0.00 0.00 39.0 41.1 0.000 0.0
10/24/20 - 0300 40.4 88 37.1 39.1 SSW | 194 0.5 2.2 WSW | 258 0 0.0 0.00 0.00 39.6 41.1 0.000 0.0
10/24/20 - 0200 40.5 88 37.3 39.2 S | 186 0.8 2.4 SW | 224 0 0.0 0.00 0.00 40.0 41.1 0.000 0.0
10/24/20 - 0100 42.4 85 38.3 40.7 SW | 217 0.4 1.8 SE | 133 0 0.0 0.00 0.00 34.6 77.7 0.101 0.0
10/24/20 - 0000 43.6 81 38.0 41.2 SW | 218 0.5 1.8 S | 178 0 0.0 0.00 0.00 34.6 77.7 0.101 0.0
10/23/20 - 2300 46.2 76 39.1 43.1 SSW | 205 0.7 3.1 SSW | 192 0 0.0 0.00 0.00 34.6 77.7 0.101 0.0
10/23/20 - 2200 50.2 72 41.4 46.2 S | 180 0.8 3.5 S | 169 0 0.0 0.00 0.00 34.6 77.7 0.101 0.0
10/23/20 - 2100 55.0 63 42.7 49.0 S | 178 2.3 4.6 S | 171 0 0.0 0.00 0.00 34.6 77.7 0.101 0.0
10/23/20 - 2000 56.1 64 44.0 50.1 S | 179 2.1 4.2 S | 184 0 0.0 0.00 0.00 34.6 77.7 0.101 0.0
10/23/20 - 1900 64.3 46 42.8 52.6 SW | 216 2.6 8.6 SSW | 203 6 0.0 0.00 0.00 34.6 77.7 0.101 0.0
10/23/20 - 1800 71.5 34 41.8 54.6 SW | 218 4.4 11.2 SW | 230 110 0.0 0.00 0.00 34.6 77.7 0.101 0.0
10/23/20 - 1700 75.3 29 40.8 55.2 SW | 235 3.9 8.8 WSW | 239 275 0.0 0.00 0.00 34.6 77.7 0.097 0.0
10/23/20 - 1600 76.2 28 40.5 55.4 SW | 228 4.8 10.7 SW | 229 429 0.0 0.00 0.00 34.6 77.7 0.089 0.0
10/23/20 - 1500 76.6 24 37.6 54.4 W | 270 3.5 11.4 SSW | 208 546 0.0 0.00 0.00 34.6 77.7 0.076 0.0
10/23/20 - 1400 72.7 25 34.8 52.2 NNE | 29 2.3 6.1 NNE | 26 610 0.0 0.00 0.00 34.6 75.9 0.060 0.0
10/23/20 - 1300 68.8 26 32.9 50.3 NNE | 31 3.0 6.4 NE | 40 614 0.0 0.00 0.00 34.6 70.9 0.044 0.0
10/23/20 - 1200 64.6 31 33.5 49.0 NNE | 12 3.2 7.9 N | 5 560 0.0 0.00 0.00 34.6 67.3 0.029 0.0
10/23/20 - 1100 61.1 38 35.2 48.2 N | 8 2.0 7.7 NNE | 23 451 0.0 0.00 0.00 34.6 63.3 0.015 0.0
10/23/20 - 1000 54.9 42 31.9 44.3 E | 87 0.4 2.2 SSW | 192 301 0.0 0.00 0.00 34.6 59.2 0.005 0.0
10/23/20 - 0900 41.9 69 32.0 37.7 SSW | 196 0.4 1.8 S | 190 132 0.0 0.00 0.00 34.6 50.4 0.001 0.0
10/23/20 - 0800 35.1 85 30.9 33.5 SSW | 194 0.4 2.2 S | 188 6 0.0 0.00 0.00 34.6 41.1 0.000 0.0
10/23/20 - 0700 36.0 83 31.2 34.0 S | 184 0.6 2.4 S | 188 0 0.0 0.00 0.00 35.3 41.1 0.000 0.0
10/23/20 - 0600 36.5 80 30.7 34.2 S | 190 0.7 2.0 SSE | 168 0 0.0 0.00 0.00 36.2 41.1 0.000 0.0
10/23/20 - 0500 37.0 80 31.4 34.8 S | 170 0.4 1.3 SSE | 168 0 0.0 0.00 0.00 36.2 41.1 0.000 0.0
10/23/20 - 0400 37.8 77 31.2 35.2 SW | 214 0.5 1.8 S | 184 0 0.0 0.00 0.00 37.3 41.1 0.000 0.0
10/23/20 - 0300 38.6 78 32.2 36.0 S | 183 0.4 1.5 SE | 140 0 0.0 0.00 0.00 37.9 41.1 0.000 0.0
10/23/20 - 0200 39.9 72 31.6 36.5 S | 187 0.6 2.0 SSE | 165 0 0.0 0.00 0.00 39.1 41.1 0.000 0.0
10/23/20 - 0100 41.5 63 29.9 36.8 SW | 216 0.6 2.2 SSW | 202 0 0.0 0.00 0.00 39.7 81.7 0.112 0.0
10/23/20 - 0000 44.4 54 28.9 38.1 SSE | 164 0.8 4.2 SSW | 195 0 0.0 0.00 0.00 39.7 81.7 0.112 0.0
10/22/20 - 2300 46.0 54 30.2 39.4 S | 176 0.8 2.8 W | 270 0 0.0 0.00 0.00 39.7 81.7 0.112 0.0
10/22/20 - 2200 48.1 53 31.5 41.0 S | 187 1.0 3.3 W | 268 0 0.0 0.00 0.00 39.7 81.7 0.112 0.0
10/22/20 - 2100 53.1 41 29.4 42.7 SSW | 199 0.9 3.5 S | 174 0 0.0 0.00 0.00 39.7 81.7 0.112 0.0
Max 76.6 93 47.7 55.9 - 5.6 13.6 - 614 0.0 0.00 0.00 40.0 81.7 0.112 0.0
Avg 53.3 60 37.2 45.1 - 1.9 5.2 - 163 0.0 0.00 - - - - -
Min 35.1 24 28.9 33.5 - 0.4 1.3 - 0 0.0 0.00 0.00 34.6 41.1 0.000 0.0
Total - - - - - - - - - - 0.00 - - - - -

Last 30 Days

Kelseyville

Daily Data | America/Los_Angeles
as of 10/24/20 9:46 PM PDT
Date Daily Max Temp (°F) Time of Max Temp Daily Min Temp (°F) Time of Min Temp Daily Rain (In) Monthly Rain (In) Seasonal Rainfall (In) Wind Spd (mph) Daily Max Wind (mph) Time of Max Wind Max Wind Dir (°) Daily ETo (in) 7 Day ETo (in) Daily Solar Rad (Cal/cm2) Dew Pt (°F) Max RH (%) Min RH (%) Daily Leaf Wet Hrs (hrs) Hrs 70-85F (hrs) Hrs > 95F (hrs) Powdery Mildew Stress (pts) GDDs (DL) GDDs (Mx/Mn) Seas GDDs (DL) Seas GDDs (Smpl) Hrs <= 32F (hrs) Hrs <= 28F (hrs) Chilling <=45F (hrs) Chill Hrs 32-45F (hrs) Utah Chilling (Units) Degree Hrs (hrs) Bee Hrs Today (Hrs) Bat Volt Min Day (V)
10/23/20 77.7 1434 34.6 0738 0.00 0.00 0.04 1.7 11.4 1445 SSW | 208 0.101 0.80 348 36.1 92 21 0.0 4.89 0.00 10 8.2 6.1 3,458 3,504 0.0 0.0 9.9 9.9 3.5 51.1 8.5 12.5
10/22/20 81.7 1559 39.7 0646 0.00 0.00 0.04 1.9 12.5 1602 ENE | 67 0.112 0.81 354 34.7 95 9 0.0 6.48 0.00 20 9.9 10.7 3,450 3,498 0.0 0.0 7.0 7.0 4.0 79.6 9.0 12.5
10/21/20 87.0 1641 40.2 0719 0.00 0.00 0.04 1.7 9.4 1121 NNE | 14 0.111 0.83 351 43.2 93 20 0.0 4.53 0.00 0 12.4 13.6 3,440 3,487 0.0 0.0 5.5 5.5 2.0 119.6 9.2 12.5
10/20/20 90.6 1535 39.6 0649 0.00 0.00 0.04 1.2 7.9 1148 NE | 40 0.105 0.84 351 42.5 94 15 0.0 2.65 0.00 0 13.4 15.1 3,427 3,474 0.0 0.0 6.1 6.1 1.5 141.7 9.2 12.5
10/19/20 88.2 1437 41.4 0730 0.00 0.00 0.04 2.0 10.5 1429 ENE | 59 0.119 0.86 353 42.9 91 19 0.0 2.96 0.00 0 13.2 14.8 3,414 3,458 0.0 0.0 3.6 3.6 1.5 138.2 9.4 12.5
10/18/20 90.8 1623 41.9 0659 0.00 0.00 0.04 1.9 9.6 1219 N | 11 0.123 0.85 362 42.3 90 17 0.0 3.13 0.00 0 13.8 16.3 3,401 3,444 0.0 0.0 4.4 4.4 1.5 151.4 9.4 12.5
10/17/20 95.0 1515 40.5 0723 0.00 0.00 0.04 1.8 11.4 1712 SW | 216 0.124 0.84 370 38.7 89 12 0.0 3.09 0.00 0 15.6 17.7 3,387 3,427 0.0 0.0 4.6 4.6 1.0 178.3 9.4 12.5
10/16/20 95.0 1656 40.6 0723 0.00 0.00 0.04 1.5 7.5 1249 NNE | 25 0.118 0.78 380 39.4 93 9 0.0 3.18 0.00 10 14.9 17.8 3,372 3,410 0.0 0.0 4.1 4.1 1.5 174.5 9.4 12.5
10/15/20 94.5 1613 42.9 0708 0.00 0.00 0.04 2.2 12.9 1659 E | 98 0.130 0.78 370 40.8 94 11 0.0 3.23 0.00 20 16.5 18.7 3,357 3,392 0.0 0.0 2.5 2.5 1.0 186.7 9.6 12.5
10/14/20 87.7 1554 45.2 0711 0.00 0.00 0.04 1.6 9.2 1530 ENE | 57 0.117 0.75 368 47.2 98 20 0.0 4.34 0.00 30 14.0 16.4 3,340 3,373 0.0 0.0 0.0 0.0 1.0 139.0 9.8 12.5
10/13/20 88.6 1553 42.0 0645 0.00 0.00 0.04 2.1 14.0 1613 W | 276 0.126 0.78 368 47.4 97 24 0.0 3.17 0.00 40 15.0 15.3 3,326 3,357 0.0 0.0 5.6 5.6 0.5 146.3 9.6 12.5
10/12/20 84.3 1653 38.8 0613 0.00 0.00 0.04 1.7 9.6 1223 NE | 44 0.115 0.79 378 43.8 96 17 0.0 7.08 0.00 50 11.8 11.6 3,311 3,341 0.0 0.0 5.6 5.6 2.0 100.1 9.3 12.5
10/11/20 78.3 1634 39.1 0639 0.00 0.00 0.04 1.9 11.0 1308 NNE | 26 0.109 0.82 378 43.7 100 18 9.1 5.20 0.00 30 9.0 8.7 3,299 3,330 0.0 0.0 4.4 4.4 2.5 56.9 9.0 12.5
10/10/20 70.4 1225 46.6 0059 0.00 0.00 0.04 2.9 16.7 1522 SSW | 203 0.068 0.86 210 51.6 97 61 2.2 0.03 0.00 40 8.0 8.5 3,290 3,321 0.0 0.0 0.0 0.0 2.0 18.6 10.0 12.5
10/9/20 77.7 1523 38.7 0554 0.00 0.00 0.04 2.4 12.3 1346 NW | 306 0.112 0.97 369 45.3 98 29 6.1 6.06 0.00 50 10.1 8.2 3,282 3,313 0.0 0.0 7.3 7.3 1.0 58.7 9.1 12.5
10/8/20 79.1 1335 42.9 0223 0.00 0.00 0.04 2.0 14.2 1533 SSW | 203 0.105 0.94 318 43.5 96 21 0.0 6.35 0.00 30 9.6 11.0 3,272 3,304 0.0 0.0 3.8 3.8 2.5 65.2 9.0 12.5
10/7/20 88.5 1501 35.3 0645 0.00 0.00 0.04 2.2 14.0 1724 SW | 224 0.147 0.93 435 35.7 87 9 0.0 3.34 0.00 10 13.1 11.9 3,263 3,293 0.0 0.0 7.3 7.3 2.0 133.1 9.4 12.5
10/6/20 90.5 1617 38.4 0717 0.00 0.00 0.04 1.9 10.7 1629 SSW | 197 0.138 0.92 415 38.6 90 12 0.0 3.10 0.00 20 14.2 14.5 3,250 3,282 0.0 0.0 6.3 6.3 2.0 156.7 9.6 12.5
10/5/20 91.7 1521 39.7 0710 0.00 0.00 0.04 2.1 14.5 1350 NE | 34 0.144 0.92 409 40.4 91 11 0.0 2.39 0.00 30 14.7 15.7 3,235 3,267 0.0 0.0 6.0 6.0 2.0 163.5 9.7 12.5
10/4/20 92.5 1547 39.8 0735 0.00 0.00 0.04 1.7 9.0 1346 NE | 53 0.149 0.92 450 37.0 85 8 0.0 3.02 0.00 40 15.3 16.2 3,221 3,251 0.0 0.0 4.3 4.3 1.5 181.7 9.9 12.5
10/3/20 96.2 1504 43.4 0713 0.00 0.00 0.04 2.6 22.6 1600 NNW | 342 0.175 0.96 423 39.5 89 11 0.0 1.74 0.92 50 19.2 19.8 3,205 3,235 0.0 0.0 1.6 1.6 0.5 247.1 10.0 12.5
10/2/20 90.6 1526 48.9 0740 0.00 0.00 0.04 1.0 7.0 1831 W | 267 0.083 0.92 256 48.2 88 22 0.0 3.25 0.00 60 15.6 19.8 3,186 3,215 0.0 0.0 0.0 0.0 0.5 148.5 9.9 12.5
10/1/20 90.9 1452 49.3 0712 0.00 0.00 0.04 0.9 5.3 1200 N | 10 0.091 0.99 276 48.8 86 17 0.0 3.52 0.00 70 16.1 20.1 3,171 3,196 0.0 0.0 0.0 0.0 0.0 149.5 10.1 12.5
9/30/20 98.2 1636 45.8 0626 0.00 0.00 0.04 1.6 7.5 1435 NE | 39 0.139 1.06 415 45.0 88 12 0.0 2.82 2.52 80 18.9 22.0 3,155 3,176 0.0 0.0 0.0 0.0 0.0 225.1 10.2 12.5
9/29/20 95.8 1551 45.8 0643 0.00 0.00 0.04 1.7 12.5 1529 NE | 52 0.135 1.08 371 44.2 83 12 0.0 3.02 0.37 90 16.2 20.8 3,136 3,154 0.0 0.0 0.0 0.0 0.5 178.0 10.1 12.6
9/28/20 96.0 1536 52.7 0059 0.00 0.00 0.04 2.4 18.2 0208 ENE | 69 0.144 1.11 376 39.6 70 10 0.0 11.32 0.14 100 25.4 24.3 3,119 3,133 0.0 0.0 0.0 0.0 0.0 292.8 11.3 12.5
9/27/20 95.6 1422 45.4 0701 0.00 0.00 0.04 3.4 16.7 1323 ENE | 71 0.191 1.12 457 43.0 98 9 3.0 6.56 0.11 100 22.6 20.5 3,094 3,108 0.0 0.0 0.0 0.0 -16.0 291.2 10.4 12.5
9/26/20 84.2 1446 48.8 0656 0.00 0.00 0.04 2.8 15.1 1600 NW | 321 0.140 1.07 407 51.6 95 32 0.0 9.28 0.00 100 16.0 16.5 3,071 3,088 0.0 0.0 0.0 0.0 0.5 128.0 10.8 12.5
9/25/20 85.0 1526 44.8 0520 0.00 0.00 0.04 2.6 15.8 1637 NW | 306 0.152 1.07 454 46.1 95 19 0.0 7.69 0.00 100 13.7 14.9 3,055 3,071 0.0 0.0 0.1 0.1 0.0 106.3 10.4 12.5
9/24/20 80.5 1405 48.4 0052 0.00 0.00 0.04 3.3 16.9 1627 WNW | 288 0.157 1.07 460 52.0 98 31 2.0 8.57 0.00 80 15.1 14.4 3,042 3,056 0.0 0.0 0.0 0.0 1.0 106.2 11.4 12.5
Max 98.2 - 52.7 - 0.00 0.00 - 3.4 22.6 - - 0.191 - 460 52.0 100 61 9.1 11.32 2.52 100 25.4 24.3 - - 0.0 0.0 9.9 9.9 4.0 292.8 11.4 12.6
Avg - - - - - 0.00 - 2.0 - - - - - - 43.1 - - - 4.53 0.14 - 14.4 15.4 - - 0.0 0.0 3.3 3.3 0.8 - 9.7 -
Min 70.4 - 34.6 - 0.00 0.00 - 0.9 5.3 - - 0.068 - 210 34.7 70 8 0.0 0.03 0.00 0 8.0 6.1 - - 0.0 0.0 0.0 0.0 -16.0 18.6 8.5 12.5
Total - - - - - - - - - - - - - - - - - - 135.98 4.07 - 431.3 462.0 - - 0.0 0.0 100.0 100.0 23.5 - 292.1 -

Climate Summary

Kelseyville

Current Year | Showing 1/1/20 - 10/23/20
as of 10/24/20 9:46 PM PDT
Temperature (°F) Precip (in) Days
Month Days Avg Max Avg Min Max Max Min Min Total Daily Min Temp < 28 Daily Min Temp < 32 Daily Max Temp > 90 Daily Max Temp > 100 Daily Rain > 0.01 Daily Rain > 0.1
Jan 2020 31 56.8 32.8 72.6 22.6 2.01 7 19 0 0 9 4
Feb 2020 29 68.7 29.5 83.1 22 0 9 23 0 0 0 0
Mar 2020 31 61.7 34 83.7 27.2 1.31 2 8 0 0 8 6
Apr 2020 30 72 40.9 86.9 28.3 0.76 0 3 0 0 6 3
May 2020 31 77.7 43.8 96.6 32.3 0.83 0 0 7 0 6 2
Jun 2020 30 86.8 50.1 103.8 36 0 0 0 14 3 0 0
Jul 2020 31 93.9 51.4 99.3 42.6 0 0 0 28 0 0 0
Aug 2020 31 94.7 54.3 103.3 45 0.04 0 0 28 4 1 0
Sep 2020 30 89.6 47.4 108.4 38.6 0 0 0 13 3 0 0
Oct 2020 23 87.3 41.3 96.2 34.6 0 0 0 11 0 0 0
Total 297 - - - - 4.95 18 53 101 10 30 15
Average 29.7 78.9 42.6 - - 0.5 1.8 5.3 10.1 1 3 1.5
Maximum 31 94.7 54.3 108.4 - 2.01 9 23 28 4 9 6
Minimum 23 56.8 29.5 - 22 0 0 0 0 0 0 0

Climate Summary

Kelseyville

Last Year | Showing 1/1/19 - 12/31/19
as of 10/24/20 9:46 PM PDT
Temperature (°F) Precip (in) Days
Month Days Avg Max Avg Min Max Max Min Min Total Daily Min Temp < 28 Daily Min Temp < 32 Daily Max Temp > 90 Daily Max Temp > 100 Daily Rain > 0.01 Daily Rain > 0.1
Jan 2019 31 59 36 75.5 22.7 9.56 6 11 0 0 12 12
Feb 2019 28 51.1 33.2 57.4 20.5 11.44 9 14 0 0 15 13
Mar 2019 31 60.3 36.2 76.5 27.3 3.27 2 7 0 0 12 10
Apr 2019 30 72.5 43.2 90.4 34.1 0.32 0 0 1 0 3 1
May 2019 31 74.4 43 86.7 32.5 2.01 0 0 0 0 6 5
Jun 2019 30 87.2 50.2 97.4 40 0.01 0 0 10 0 0 0
Jul 2019 31 88.7 52.2 98.7 46.5 0 0 0 13 0 0 0
Aug 2019 31 91.1 53.3 101.2 48.8 0 0 0 19 1 0 0
Sep 2019 30 82.8 46 97.3 35.1 0.09 0 0 7 0 2 0
Oct 2019 31 76.6 33.8 88.6 22.7 0.01 4 14 0 0 0 0
Nov 2019 30 70.6 31.9 85.1 21.3 0.96 7 16 0 0 3 3
Dec 2019 31 54.8 36.3 65.2 21.2 3.97 5 10 0 0 14 8
Total 365 - - - - 31.64 33 72 50 1 67 52
Average 30.4 72.4 41.3 - - 2.64 2.8 6 4.2 0.1 5.6 4.3
Maximum 31 91.1 53.3 101.2 - 11.44 9 16 19 1 15 13
Minimum 28 51.1 31.9 - 20.5 0 0 0 0 0 0 0
Calm: 0.0%
Calm: 0.0%